sensor_id;sensor_type;location;lat;lon;timestamp;temperature;humidity
64062;DHT22;50308;47.438;-1.528;2023-05-10T00:01:48;15.10;77.90
64062;DHT22;50308;47.438;-1.528;2023-05-10T00:04:13;15.10;77.90
64062;DHT22;50308;47.438;-1.528;2023-05-10T00:06:39;15.10;78.40
64062;DHT22;50308;47.438;-1.528;2023-05-10T00:09:05;15.10;78.30
64062;DHT22;50308;47.438;-1.528;2023-05-10T00:11:31;15.10;78.40
64062;DHT22;50308;47.438;-1.528;2023-05-10T00:13:57;15.10;78.40
64062;DHT22;50308;47.438;-1.528;2023-05-10T00:16:22;15.10;79.40
64062;DHT22;50308;47.438;-1.528;2023-05-10T00:18:48;15.10;78.40
64062;DHT22;50308;47.438;-1.528;2023-05-10T00:21:14;15.10;78.40
64062;DHT22;50308;47.438;-1.528;2023-05-10T00:23:40;15.10;78.40
64062;DHT22;50308;47.438;-1.528;2023-05-10T00:26:05;15.10;78.40
64062;DHT22;50308;47.438;-1.528;2023-05-10T00:28:31;15.00;78.10
64062;DHT22;50308;47.438;-1.528;2023-05-10T00:30:57;15.00;78.30
64062;DHT22;50308;47.438;-1.528;2023-05-10T00:33:22;15.00;77.70
64062;DHT22;50308;47.438;-1.528;2023-05-10T00:35:48;15.00;78.20
64062;DHT22;50308;47.438;-1.528;2023-05-10T00:38:14;15.00;78.30
64062;DHT22;50308;47.438;-1.528;2023-05-10T00:40:39;14.90;77.70
64062;DHT22;50308;47.438;-1.528;2023-05-10T00:43:05;14.90;78.20
64062;DHT22;50308;47.438;-1.528;2023-05-10T00:45:33;14.90;78.20
64062;DHT22;50308;47.438;-1.528;2023-05-10T00:48:01;14.90;77.90
64062;DHT22;50308;47.438;-1.528;2023-05-10T00:50:28;14.90;78.30
64062;DHT22;50308;47.438;-1.528;2023-05-10T00:52:54;14.90;78.30
64062;DHT22;50308;47.438;-1.528;2023-05-10T00:55:20;15.00;78.30
64062;DHT22;50308;47.438;-1.528;2023-05-10T00:57:46;14.90;78.30
64062;DHT22;50308;47.438;-1.528;2023-05-10T01:00:12;14.90;78.30
64062;DHT22;50308;47.438;-1.528;2023-05-10T01:02:44;14.90;78.30
64062;DHT22;50308;47.438;-1.528;2023-05-10T01:05:09;14.90;78.30
64062;DHT22;50308;47.438;-1.528;2023-05-10T01:07:35;14.80;78.60
64062;DHT22;50308;47.438;-1.528;2023-05-10T01:10:01;14.80;78.50
64062;DHT22;50308;47.438;-1.528;2023-05-10T01:12:27;14.90;78.30
64062;DHT22;50308;47.438;-1.528;2023-05-10T01:14:53;14.90;78.70
64062;DHT22;50308;47.438;-1.528;2023-05-10T01:17:20;14.90;78.30
64062;DHT22;50308;47.438;-1.528;2023-05-10T01:19:46;14.90;78.60
64062;DHT22;50308;47.438;-1.528;2023-05-10T01:33:47;14.80;78.80
64062;DHT22;50308;47.438;-1.528;2023-05-10T01:36:30;14.80;78.70
64062;DHT22;50308;47.438;-1.528;2023-05-10T01:39:27;14.90;78.60
64062;DHT22;50308;47.438;-1.528;2023-05-10T01:44:37;14.80;78.90
64062;DHT22;50308;47.438;-1.528;2023-05-10T01:47:11;14.80;79.00
64062;DHT22;50308;47.438;-1.528;2023-05-10T01:49:58;14.80;79.10
64062;DHT22;50308;47.438;-1.528;2023-05-10T01:52:32;14.80;78.90
64062;DHT22;50308;47.438;-1.528;2023-05-10T01:55:15;14.80;79.00
64062;DHT22;50308;47.438;-1.528;2023-05-10T01:57:44;14.80;79.10
64062;DHT22;50308;47.438;-1.528;2023-05-10T02:00:12;14.80;79.10
64062;DHT22;50308;47.438;-1.528;2023-05-10T02:02:45;14.70;79.10
64062;DHT22;50308;47.438;-1.528;2023-05-10T02:05:12;14.80;79.40
64062;DHT22;50308;47.438;-1.528;2023-05-10T02:07:39;14.70;79.30
64062;DHT22;50308;47.438;-1.528;2023-05-10T02:10:06;14.80;79.40
64062;DHT22;50308;47.438;-1.528;2023-05-10T02:12:39;14.80;79.30
64062;DHT22;50308;47.438;-1.528;2023-05-10T02:15:07;14.70;79.60
64062;DHT22;50308;47.438;-1.528;2023-05-10T02:17:35;14.70;79.60
64062;DHT22;50308;47.438;-1.528;2023-05-10T02:20:03;14.70;79.80
64062;DHT22;50308;47.438;-1.528;2023-05-10T02:22:31;14.70;79.60
64062;DHT22;50308;47.438;-1.528;2023-05-10T02:24:58;14.70;79.50
64062;DHT22;50308;47.438;-1.528;2023-05-10T02:27:27;14.70;79.70
64062;DHT22;50308;47.438;-1.528;2023-05-10T02:29:53;14.70;79.80
64062;DHT22;50308;47.438;-1.528;2023-05-10T02:32:21;14.70;79.50
64062;DHT22;50308;47.438;-1.528;2023-05-10T02:34:47;14.80;79.30
64062;DHT22;50308;47.438;-1.528;2023-05-10T02:37:19;14.80;79.20
64062;DHT22;50308;47.438;-1.528;2023-05-10T02:39:49;14.80;79.30
64062;DHT22;50308;47.438;-1.528;2023-05-10T02:42:18;14.80;79.50
64062;DHT22;50308;47.438;-1.528;2023-05-10T02:44:48;14.80;79.50
64062;DHT22;50308;47.438;-1.528;2023-05-10T02:47:16;14.70;79.50
64062;DHT22;50308;47.438;-1.528;2023-05-10T02:49:42;14.70;79.70
64062;DHT22;50308;47.438;-1.528;2023-05-10T02:52:08;14.70;79.70
64062;DHT22;50308;47.438;-1.528;2023-05-10T02:54:45;14.70;79.50
64062;DHT22;50308;47.438;-1.528;2023-05-10T02:57:15;14.70;79.70
64062;DHT22;50308;47.438;-1.528;2023-05-10T02:59:45;14.80;79.50
64062;DHT22;50308;47.438;-1.528;2023-05-10T03:02:12;14.80;79.50
64062;DHT22;50308;47.438;-1.528;2023-05-10T03:04:38;14.80;79.70
64062;DHT22;50308;47.438;-1.528;2023-05-10T03:07:04;14.80;79.30
64062;DHT22;50308;47.438;-1.528;2023-05-10T03:09:31;14.80;79.50
64062;DHT22;50308;47.438;-1.528;2023-05-10T03:15:06;14.70;79.50
64062;DHT22;50308;47.438;-1.528;2023-05-10T03:18:06;14.80;79.40
64062;DHT22;50308;47.438;-1.528;2023-05-10T03:25:50;14.80;79.70
64062;DHT22;50308;47.438;-1.528;2023-05-10T03:28:18;14.80;80.40
64062;DHT22;50308;47.438;-1.528;2023-05-10T03:30:45;14.70;79.70
64062;DHT22;50308;47.438;-1.528;2023-05-10T03:33:11;14.70;79.70
64062;DHT22;50308;47.438;-1.528;2023-05-10T03:35:38;14.70;79.60
64062;DHT22;50308;47.438;-1.528;2023-05-10T03:38:04;14.70;79.60
64062;DHT22;50308;47.438;-1.528;2023-05-10T03:40:30;14.70;79.90
64062;DHT22;50308;47.438;-1.528;2023-05-10T03:42:58;14.70;79.70
64062;DHT22;50308;47.438;-1.528;2023-05-10T03:45:23;14.70;79.80
64062;DHT22;50308;47.438;-1.528;2023-05-10T03:47:49;14.60;80.00
64062;DHT22;50308;47.438;-1.528;2023-05-10T03:50:15;14.70;79.80
64062;DHT22;50308;47.438;-1.528;2023-05-10T03:52:41;14.60;79.80
64062;DHT22;50308;47.438;-1.528;2023-05-10T03:55:07;14.60;80.00
64062;DHT22;50308;47.438;-1.528;2023-05-10T03:57:33;14.60;80.20
64062;DHT22;50308;47.438;-1.528;2023-05-10T03:59:59;14.50;80.30
64062;DHT22;50308;47.438;-1.528;2023-05-10T04:02:25;14.60;80.30
64062;DHT22;50308;47.438;-1.528;2023-05-10T04:04:51;14.50;80.30
64062;DHT22;50308;47.438;-1.528;2023-05-10T04:07:16;14.50;80.40
64062;DHT22;50308;47.438;-1.528;2023-05-10T04:09:43;14.60;80.40
64062;DHT22;50308;47.438;-1.528;2023-05-10T04:12:09;14.50;80.40
64062;DHT22;50308;47.438;-1.528;2023-05-10T04:14:35;14.60;80.50
64062;DHT22;50308;47.438;-1.528;2023-05-10T04:17:00;14.60;80.10
64062;DHT22;50308;47.438;-1.528;2023-05-10T04:19:30;14.70;80.20
64062;DHT22;50308;47.438;-1.528;2023-05-10T04:21:55;14.70;80.30
64062;DHT22;50308;47.438;-1.528;2023-05-10T04:24:21;14.60;80.20
64062;DHT22;50308;47.438;-1.528;2023-05-10T04:26:47;14.60;80.20
64062;DHT22;50308;47.438;-1.528;2023-05-10T04:29:12;14.60;80.20
64062;DHT22;50308;47.438;-1.528;2023-05-10T04:31:38;14.60;80.60
64062;DHT22;50308;47.438;-1.528;2023-05-10T04:34:04;14.60;80.60
64062;DHT22;50308;47.438;-1.528;2023-05-10T04:36:30;14.60;81.70
64062;DHT22;50308;47.438;-1.528;2023-05-10T04:38:57;14.70;80.50
64062;DHT22;50308;47.438;-1.528;2023-05-10T04:41:23;14.70;80.40
64062;DHT22;50308;47.438;-1.528;2023-05-10T04:43:50;14.70;80.40
64062;DHT22;50308;47.438;-1.528;2023-05-10T04:46:16;14.60;80.70
64062;DHT22;50308;47.438;-1.528;2023-05-10T04:48:42;14.70;80.40
64062;DHT22;50308;47.438;-1.528;2023-05-10T04:51:07;14.50;80.90
64062;DHT22;50308;47.438;-1.528;2023-05-10T04:53:33;14.60;81.00
64062;DHT22;50308;47.438;-1.528;2023-05-10T04:55:59;14.60;80.90
64062;DHT22;50308;47.438;-1.528;2023-05-10T04:58:24;14.70;80.90
64062;DHT22;50308;47.438;-1.528;2023-05-10T05:00:50;14.70;81.00
64062;DHT22;50308;47.438;-1.528;2023-05-10T05:03:16;14.70;81.00
64062;DHT22;50308;47.438;-1.528;2023-05-10T05:05:42;14.70;81.10
64062;DHT22;50308;47.438;-1.528;2023-05-10T05:08:08;14.70;80.90
64062;DHT22;50308;47.438;-1.528;2023-05-10T05:10:34;14.70;81.00
64062;DHT22;50308;47.438;-1.528;2023-05-10T05:13:00;14.70;81.10
64062;DHT22;50308;47.438;-1.528;2023-05-10T05:15:26;14.70;80.80
64062;DHT22;50308;47.438;-1.528;2023-05-10T05:17:51;14.70;81.10
64062;DHT22;50308;47.438;-1.528;2023-05-10T05:20:17;14.60;81.30
64062;DHT22;50308;47.438;-1.528;2023-05-10T05:22:44;14.70;81.30
64062;DHT22;50308;47.438;-1.528;2023-05-10T05:25:10;14.80;81.00
64062;DHT22;50308;47.438;-1.528;2023-05-10T05:27:37;14.80;82.00
64062;DHT22;50308;47.438;-1.528;2023-05-10T05:30:03;14.90;81.10
64062;DHT22;50308;47.438;-1.528;2023-05-10T05:32:29;14.90;81.20
64062;DHT22;50308;47.438;-1.528;2023-05-10T05:34:55;14.90;80.70
64062;DHT22;50308;47.438;-1.528;2023-05-10T05:37:21;14.90;81.00
64062;DHT22;50308;47.438;-1.528;2023-05-10T05:39:48;14.90;81.30
64062;DHT22;50308;47.438;-1.528;2023-05-10T05:42:14;15.00;81.50
64062;DHT22;50308;47.438;-1.528;2023-05-10T05:44:40;15.00;81.30
64062;DHT22;50308;47.438;-1.528;2023-05-10T05:47:06;15.00;81.60
64062;DHT22;50308;47.438;-1.528;2023-05-10T05:49:32;15.00;81.70
64062;DHT22;50308;47.438;-1.528;2023-05-10T05:52:02;15.00;81.30
64062;DHT22;50308;47.438;-1.528;2023-05-10T05:54:28;15.00;81.50
64062;DHT22;50308;47.438;-1.528;2023-05-10T05:56:58;15.00;81.60
64062;DHT22;50308;47.438;-1.528;2023-05-10T05:59:23;15.00;81.60
64062;DHT22;50308;47.438;-1.528;2023-05-10T06:01:49;15.00;81.60
64062;DHT22;50308;47.438;-1.528;2023-05-10T06:04:16;15.10;81.40
64062;DHT22;50308;47.438;-1.528;2023-05-10T06:06:41;15.20;81.20
64062;DHT22;50308;47.438;-1.528;2023-05-10T06:09:08;15.20;81.40
64062;DHT22;50308;47.438;-1.528;2023-05-10T06:11:34;15.10;81.70
64062;DHT22;50308;47.438;-1.528;2023-05-10T06:14:00;15.20;81.80
64062;DHT22;50308;47.438;-1.528;2023-05-10T06:16:26;15.20;81.80
64062;DHT22;50308;47.438;-1.528;2023-05-10T06:18:52;15.20;81.60
64062;DHT22;50308;47.438;-1.528;2023-05-10T06:21:18;15.20;81.90
64062;DHT22;50308;47.438;-1.528;2023-05-10T06:23:43;15.20;81.90
64062;DHT22;50308;47.438;-1.528;2023-05-10T06:26:09;15.20;81.80
64062;DHT22;50308;47.438;-1.528;2023-05-10T06:28:35;15.20;82.00
64062;DHT22;50308;47.438;-1.528;2023-05-10T06:31:04;15.30;81.90
64062;DHT22;50308;47.438;-1.528;2023-05-10T06:33:29;15.30;81.90
64062;DHT22;50308;47.438;-1.528;2023-05-10T06:35:55;15.30;81.80
64062;DHT22;50308;47.438;-1.528;2023-05-10T06:38:21;15.30;81.90
64062;DHT22;50308;47.438;-1.528;2023-05-10T06:40:47;15.30;82.00
64062;DHT22;50308;47.438;-1.528;2023-05-10T06:43:12;15.30;82.10
64062;DHT22;50308;47.438;-1.528;2023-05-10T06:45:38;15.30;81.90
64062;DHT22;50308;47.438;-1.528;2023-05-10T06:48:04;15.20;82.20
64062;DHT22;50308;47.438;-1.528;2023-05-10T06:50:29;15.30;82.00
64062;DHT22;50308;47.438;-1.528;2023-05-10T06:52:55;15.40;81.90
64062;DHT22;50308;47.438;-1.528;2023-05-10T06:55:21;15.40;81.90
64062;DHT22;50308;47.438;-1.528;2023-05-10T06:57:46;15.50;81.80
64062;DHT22;50308;47.438;-1.528;2023-05-10T07:00:13;15.40;82.10
64062;DHT22;50308;47.438;-1.528;2023-05-10T07:02:39;15.50;82.00
64062;DHT22;50308;47.438;-1.528;2023-05-10T07:05:05;15.40;82.10
64062;DHT22;50308;47.438;-1.528;2023-05-10T07:07:31;15.40;82.30
64062;DHT22;50308;47.438;-1.528;2023-05-10T07:09:57;15.40;82.30
64062;DHT22;50308;47.438;-1.528;2023-05-10T07:12:23;15.50;82.50
64062;DHT22;50308;47.438;-1.528;2023-05-10T07:14:49;15.50;82.40
64062;DHT22;50308;47.438;-1.528;2023-05-10T07:17:15;15.60;82.50
64062;DHT22;50308;47.438;-1.528;2023-05-10T07:19:41;15.60;82.10
64062;DHT22;50308;47.438;-1.528;2023-05-10T07:22:06;15.60;82.00
64062;DHT22;50308;47.438;-1.528;2023-05-10T07:24:33;15.60;82.00
64062;DHT22;50308;47.438;-1.528;2023-05-10T07:26:59;15.60;81.90
64062;DHT22;50308;47.438;-1.528;2023-05-10T07:29:25;15.60;81.90
64062;DHT22;50308;47.438;-1.528;2023-05-10T07:31:51;15.60;82.10
64062;DHT22;50308;47.438;-1.528;2023-05-10T07:34:16;15.60;82.20
64062;DHT22;50308;47.438;-1.528;2023-05-10T07:36:42;15.60;82.10
64062;DHT22;50308;47.438;-1.528;2023-05-10T07:39:08;15.60;81.80
64062;DHT22;50308;47.438;-1.528;2023-05-10T07:41:33;15.70;81.70
64062;DHT22;50308;47.438;-1.528;2023-05-10T07:43:59;15.70;81.80
64062;DHT22;50308;47.438;-1.528;2023-05-10T07:46:25;15.70;81.50
64062;DHT22;50308;47.438;-1.528;2023-05-10T07:48:51;15.70;81.30
64062;DHT22;50308;47.438;-1.528;2023-05-10T07:51:16;15.70;81.60
64062;DHT22;50308;47.438;-1.528;2023-05-10T07:53:42;15.60;81.50
64062;DHT22;50308;47.438;-1.528;2023-05-10T07:56:31;15.70;81.40
64062;DHT22;50308;47.438;-1.528;2023-05-10T07:58:57;15.70;81.20
64062;DHT22;50308;47.438;-1.528;2023-05-10T08:01:23;15.70;81.10
64062;DHT22;50308;47.438;-1.528;2023-05-10T08:03:49;15.70;81.40
64062;DHT22;50308;47.438;-1.528;2023-05-10T08:06:17;15.70;81.00
64062;DHT22;50308;47.438;-1.528;2023-05-10T08:08:44;15.70;81.20
64062;DHT22;50308;47.438;-1.528;2023-05-10T08:11:17;15.80;81.10
64062;DHT22;50308;47.438;-1.528;2023-05-10T08:13:44;15.90;80.80
64062;DHT22;50308;47.438;-1.528;2023-05-10T08:16:10;15.90;81.20
64062;DHT22;50308;47.438;-1.528;2023-05-10T08:18:36;15.90;81.00
64062;DHT22;50308;47.438;-1.528;2023-05-10T08:21:02;15.90;80.60
64062;DHT22;50308;47.438;-1.528;2023-05-10T08:23:28;15.90;80.90
64062;DHT22;50308;47.438;-1.528;2023-05-10T08:25:53;16.00;81.10
64062;DHT22;50308;47.438;-1.528;2023-05-10T08:28:19;16.00;80.80
64062;DHT22;50308;47.438;-1.528;2023-05-10T08:30:45;16.00;81.00
64062;DHT22;50308;47.438;-1.528;2023-05-10T08:33:10;16.10;81.10
64062;DHT22;50308;47.438;-1.528;2023-05-10T08:35:36;16.00;80.70
64062;DHT22;50308;47.438;-1.528;2023-05-10T08:38:02;16.10;80.70
64062;DHT22;50308;47.438;-1.528;2023-05-10T08:40:28;16.10;82.20
64062;DHT22;50308;47.438;-1.528;2023-05-10T08:43:06;16.10;81.40
64062;DHT22;50308;47.438;-1.528;2023-05-10T08:45:36;16.10;81.30
64062;DHT22;50308;47.438;-1.528;2023-05-10T08:48:05;16.20;81.90
64062;DHT22;50308;47.438;-1.528;2023-05-10T08:50:31;16.10;82.20
64062;DHT22;50308;47.438;-1.528;2023-05-10T08:52:59;16.20;82.50
64062;DHT22;50308;47.438;-1.528;2023-05-10T08:55:26;16.20;82.60
64062;DHT22;50308;47.438;-1.528;2023-05-10T08:57:53;16.20;82.40
64062;DHT22;50308;47.438;-1.528;2023-05-10T09:00:19;16.20;82.40
64062;DHT22;50308;47.438;-1.528;2023-05-10T09:02:45;16.20;82.10
64062;DHT22;50308;47.438;-1.528;2023-05-10T09:05:12;16.20;82.30
64062;DHT22;50308;47.438;-1.528;2023-05-10T09:07:38;16.20;82.30
64062;DHT22;50308;47.438;-1.528;2023-05-10T09:10:05;16.20;82.40
64062;DHT22;50308;47.438;-1.528;2023-05-10T09:12:31;16.20;81.70
64062;DHT22;50308;47.438;-1.528;2023-05-10T09:14:59;16.20;81.80
64062;DHT22;50308;47.438;-1.528;2023-05-10T09:17:25;16.20;81.80
64062;DHT22;50308;47.438;-1.528;2023-05-10T09:20:02;16.30;81.50
64062;DHT22;50308;47.438;-1.528;2023-05-10T09:22:30;16.30;81.50
64062;DHT22;50308;47.438;-1.528;2023-05-10T09:25:12;16.30;81.30
64062;DHT22;50308;47.438;-1.528;2023-05-10T09:27:40;16.30;81.30
64062;DHT22;50308;47.438;-1.528;2023-05-10T09:30:06;16.30;81.20
64062;DHT22;50308;47.438;-1.528;2023-05-10T09:32:43;16.30;80.90
64062;DHT22;50308;47.438;-1.528;2023-05-10T09:35:16;16.30;80.80
64062;DHT22;50308;47.438;-1.528;2023-05-10T09:37:44;16.30;80.50
64062;DHT22;50308;47.438;-1.528;2023-05-10T09:40:21;16.30;80.40
64062;DHT22;50308;47.438;-1.528;2023-05-10T09:43:08;16.30;80.70
64062;DHT22;50308;47.438;-1.528;2023-05-10T09:45:36;16.30;80.30
64062;DHT22;50308;47.438;-1.528;2023-05-10T09:48:02;16.30;80.40
64062;DHT22;50308;47.438;-1.528;2023-05-10T09:50:29;16.40;80.80
64062;DHT22;50308;47.438;-1.528;2023-05-10T09:53:00;16.40;80.60
64062;DHT22;50308;47.438;-1.528;2023-05-10T09:58:04;16.40;80.30
64062;DHT22;50308;47.438;-1.528;2023-05-10T10:00:36;16.40;80.10
64062;DHT22;50308;47.438;-1.528;2023-05-10T10:03:03;16.40;79.60
64062;DHT22;50308;47.438;-1.528;2023-05-10T10:05:33;16.40;80.40
64062;DHT22;50308;47.438;-1.528;2023-05-10T10:08:00;16.40;80.20
64062;DHT22;50308;47.438;-1.528;2023-05-10T10:10:26;16.40;79.30
64062;DHT22;50308;47.438;-1.528;2023-05-10T10:12:52;16.40;79.40
64062;DHT22;50308;47.438;-1.528;2023-05-10T10:15:19;16.50;79.30
64062;DHT22;50308;47.438;-1.528;2023-05-10T10:17:45;16.50;80.50
64062;DHT22;50308;47.438;-1.528;2023-05-10T10:20:12;16.50;79.40
64062;DHT22;50308;47.438;-1.528;2023-05-10T10:22:38;16.50;79.10
64062;DHT22;50308;47.438;-1.528;2023-05-10T10:25:04;16.50;79.10
64062;DHT22;50308;47.438;-1.528;2023-05-10T10:30:59;16.50;79.60
64062;DHT22;50308;47.438;-1.528;2023-05-10T10:35:50;16.60;79.00
64062;DHT22;50308;47.438;-1.528;2023-05-10T10:38:17;16.60;79.30
64062;DHT22;50308;47.438;-1.528;2023-05-10T10:40:43;16.60;79.40
64062;DHT22;50308;47.438;-1.528;2023-05-10T10:43:28;16.60;79.30
64062;DHT22;50308;47.438;-1.528;2023-05-10T10:46:15;16.60;79.20
64062;DHT22;50308;47.438;-1.528;2023-05-10T10:48:48;16.60;79.20
64062;DHT22;50308;47.438;-1.528;2023-05-10T10:51:14;16.60;78.70
64062;DHT22;50308;47.438;-1.528;2023-05-10T10:53:41;16.60;79.20
64062;DHT22;50308;47.438;-1.528;2023-05-10T10:56:11;16.70;79.30
64062;DHT22;50308;47.438;-1.528;2023-05-10T10:58:38;16.70;79.30
64062;DHT22;50308;47.438;-1.528;2023-05-10T11:01:15;16.60;79.20
64062;DHT22;50308;47.438;-1.528;2023-05-10T11:06:31;16.60;79.20
64062;DHT22;50308;47.438;-1.528;2023-05-10T11:08:57;16.70;80.20
64062;DHT22;50308;47.438;-1.528;2023-05-10T11:11:23;16.70;79.20
64062;DHT22;50308;47.438;-1.528;2023-05-10T11:13:49;16.70;79.20
64062;DHT22;50308;47.438;-1.528;2023-05-10T11:16:18;16.70;78.90
64062;DHT22;50308;47.438;-1.528;2023-05-10T11:19:00;16.70;79.30
64062;DHT22;50308;47.438;-1.528;2023-05-10T11:21:28;16.70;79.90
64062;DHT22;50308;47.438;-1.528;2023-05-10T11:23:55;16.70;79.30
64062;DHT22;50308;47.438;-1.528;2023-05-10T11:26:23;16.70;79.10
64062;DHT22;50308;47.438;-1.528;2023-05-10T11:28:54;16.70;79.00
64062;DHT22;50308;47.438;-1.528;2023-05-10T11:31:24;16.70;79.00
64062;DHT22;50308;47.438;-1.528;2023-05-10T11:33:56;16.70;79.10
64062;DHT22;50308;47.438;-1.528;2023-05-10T11:36:27;16.70;78.80
64062;DHT22;50308;47.438;-1.528;2023-05-10T11:38:53;16.70;79.30
64062;DHT22;50308;47.438;-1.528;2023-05-10T11:41:19;16.70;79.70
64062;DHT22;50308;47.438;-1.528;2023-05-10T11:43:52;16.70;79.90
64062;DHT22;50308;47.438;-1.528;2023-05-10T11:46:20;16.70;79.70
64062;DHT22;50308;47.438;-1.528;2023-05-10T11:48:49;16.70;79.90
64062;DHT22;50308;47.438;-1.528;2023-05-10T11:51:19;16.70;79.80
64062;DHT22;50308;47.438;-1.528;2023-05-10T11:53:45;16.70;79.30
64062;DHT22;50308;47.438;-1.528;2023-05-10T11:56:11;16.70;79.90
64062;DHT22;50308;47.438;-1.528;2023-05-10T11:58:38;16.80;79.30
64062;DHT22;50308;47.438;-1.528;2023-05-10T12:01:05;16.80;79.40
64062;DHT22;50308;47.438;-1.528;2023-05-10T12:03:31;16.90;79.40
64062;DHT22;50308;47.438;-1.528;2023-05-10T12:05:58;16.90;79.40
64062;DHT22;50308;47.438;-1.528;2023-05-10T12:08:26;16.90;79.10
64062;DHT22;50308;47.438;-1.528;2023-05-10T12:10:53;16.90;79.00
64062;DHT22;50308;47.438;-1.528;2023-05-10T12:13:20;16.90;79.10
64062;DHT22;50308;47.438;-1.528;2023-05-10T12:15:46;16.90;79.30
64062;DHT22;50308;47.438;-1.528;2023-05-10T12:18:12;16.90;79.40
64062;DHT22;50308;47.438;-1.528;2023-05-10T12:20:39;16.90;79.60
64062;DHT22;50308;47.438;-1.528;2023-05-10T12:23:05;16.90;79.90
64062;DHT22;50308;47.438;-1.528;2023-05-10T12:25:34;16.90;80.90
64062;DHT22;50308;47.438;-1.528;2023-05-10T12:28:03;16.90;82.30
64062;DHT22;50308;47.438;-1.528;2023-05-10T12:30:31;16.90;82.60
64062;DHT22;50308;47.438;-1.528;2023-05-10T12:33:23;16.90;82.10
64062;DHT22;50308;47.438;-1.528;2023-05-10T12:35:54;16.90;82.00
64062;DHT22;50308;47.438;-1.528;2023-05-10T12:40:58;16.90;83.10
64062;DHT22;50308;47.438;-1.528;2023-05-10T12:43:24;16.90;83.80
64062;DHT22;50308;47.438;-1.528;2023-05-10T12:45:50;16.90;82.50
64062;DHT22;50308;47.438;-1.528;2023-05-10T12:48:16;16.90;82.80
64062;DHT22;50308;47.438;-1.528;2023-05-10T12:50:42;17.00;83.30
64062;DHT22;50308;47.438;-1.528;2023-05-10T12:53:08;17.00;83.70
64062;DHT22;50308;47.438;-1.528;2023-05-10T12:55:34;16.90;83.00
64062;DHT22;50308;47.438;-1.528;2023-05-10T12:57:59;16.90;82.90
64062;DHT22;50308;47.438;-1.528;2023-05-10T13:00:25;16.80;82.70
64062;DHT22;50308;47.438;-1.528;2023-05-10T13:02:51;16.70;81.80
64062;DHT22;50308;47.438;-1.528;2023-05-10T13:05:17;16.50;81.90
64062;DHT22;50308;47.438;-1.528;2023-05-10T13:07:43;16.30;82.10
64062;DHT22;50308;47.438;-1.528;2023-05-10T13:10:09;16.20;83.00
64062;DHT22;50308;47.438;-1.528;2023-05-10T13:12:35;16.10;83.50
64062;DHT22;50308;47.438;-1.528;2023-05-10T13:15:01;16.10;84.10
64062;DHT22;50308;47.438;-1.528;2023-05-10T13:17:28;16.00;84.60
64062;DHT22;50308;47.438;-1.528;2023-05-10T13:19:54;16.00;85.40
64062;DHT22;50308;47.438;-1.528;2023-05-10T13:22:20;16.00;85.90
64062;DHT22;50308;47.438;-1.528;2023-05-10T13:24:45;16.00;85.60
64062;DHT22;50308;47.438;-1.528;2023-05-10T13:27:11;16.00;85.90
64062;DHT22;50308;47.438;-1.528;2023-05-10T13:29:37;16.10;86.80
64062;DHT22;50308;47.438;-1.528;2023-05-10T13:32:03;16.10;87.10
64062;DHT22;50308;47.438;-1.528;2023-05-10T13:34:28;16.30;86.80
64062;DHT22;50308;47.438;-1.528;2023-05-10T13:36:54;16.30;86.80
64062;DHT22;50308;47.438;-1.528;2023-05-10T13:39:21;16.30;86.60
64062;DHT22;50308;47.438;-1.528;2023-05-10T13:41:47;16.40;86.70
64062;DHT22;50308;47.438;-1.528;2023-05-10T13:44:13;16.50;87.20
64062;DHT22;50308;47.438;-1.528;2023-05-10T13:46:40;16.50;87.70
64062;DHT22;50308;47.438;-1.528;2023-05-10T13:49:06;16.50;88.40
64062;DHT22;50308;47.438;-1.528;2023-05-10T13:51:34;16.60;87.90
64062;DHT22;50308;47.438;-1.528;2023-05-10T13:53:59;16.60;87.70
64062;DHT22;50308;47.438;-1.528;2023-05-10T13:56:25;16.50;87.70
64062;DHT22;50308;47.438;-1.528;2023-05-10T13:58:51;16.50;87.80
64062;DHT22;50308;47.438;-1.528;2023-05-10T14:01:17;16.50;87.30
64062;DHT22;50308;47.438;-1.528;2023-05-10T14:03:42;16.40;87.30
64062;DHT22;50308;47.438;-1.528;2023-05-10T14:06:08;16.30;87.60
64062;DHT22;50308;47.438;-1.528;2023-05-10T14:08:35;16.30;86.70
64062;DHT22;50308;47.438;-1.528;2023-05-10T14:11:01;16.20;87.00
64062;DHT22;50308;47.438;-1.528;2023-05-10T14:13:26;16.10;88.20
64062;DHT22;50308;47.438;-1.528;2023-05-10T14:15:53;16.10;87.00
64062;DHT22;50308;47.438;-1.528;2023-05-10T14:18:19;16.10;87.00
64062;DHT22;50308;47.438;-1.528;2023-05-10T14:20:44;16.10;87.20
64062;DHT22;50308;47.438;-1.528;2023-05-10T14:23:10;16.10;87.50
64062;DHT22;50308;47.438;-1.528;2023-05-10T14:25:36;16.20;86.90
64062;DHT22;50308;47.438;-1.528;2023-05-10T14:28:03;16.10;87.50
64062;DHT22;50308;47.438;-1.528;2023-05-10T14:30:31;16.10;88.20
64062;DHT22;50308;47.438;-1.528;2023-05-10T14:32:56;16.20;88.20
64062;DHT22;50308;47.438;-1.528;2023-05-10T14:35:23;16.30;87.30
64062;DHT22;50308;47.438;-1.528;2023-05-10T14:37:49;16.30;88.00
64062;DHT22;50308;47.438;-1.528;2023-05-10T14:40:15;16.40;88.00
64062;DHT22;50308;47.438;-1.528;2023-05-10T14:42:42;16.50;88.00
64062;DHT22;50308;47.438;-1.528;2023-05-10T14:45:09;16.50;87.80
64062;DHT22;50308;47.438;-1.528;2023-05-10T14:47:35;16.50;87.10
64062;DHT22;50308;47.438;-1.528;2023-05-10T14:50:00;16.50;87.60
64062;DHT22;50308;47.438;-1.528;2023-05-10T14:52:26;16.50;88.10
64062;DHT22;50308;47.438;-1.528;2023-05-10T14:54:53;16.50;88.90
64062;DHT22;50308;47.438;-1.528;2023-05-10T14:57:19;16.60;89.40
64062;DHT22;50308;47.438;-1.528;2023-05-10T14:59:44;16.60;89.40
64062;DHT22;50308;47.438;-1.528;2023-05-10T15:02:10;16.60;89.60
64062;DHT22;50308;47.438;-1.528;2023-05-10T15:04:36;16.60;88.80
64062;DHT22;50308;47.438;-1.528;2023-05-10T15:07:02;16.60;88.10
64062;DHT22;50308;47.438;-1.528;2023-05-10T15:09:28;16.60;87.90
64062;DHT22;50308;47.438;-1.528;2023-05-10T15:11:54;16.70;87.00
64062;DHT22;50308;47.438;-1.528;2023-05-10T15:14:20;16.70;87.30
64062;DHT22;50308;47.438;-1.528;2023-05-10T15:16:46;16.70;87.90
64062;DHT22;50308;47.438;-1.528;2023-05-10T15:19:12;16.70;87.90
64062;DHT22;50308;47.438;-1.528;2023-05-10T15:21:37;16.70;87.60
64062;DHT22;50308;47.438;-1.528;2023-05-10T15:24:07;16.70;87.30
64062;DHT22;50308;47.438;-1.528;2023-05-10T15:26:33;16.60;87.20
64062;DHT22;50308;47.438;-1.528;2023-05-10T15:28:59;16.70;86.70
64062;DHT22;50308;47.438;-1.528;2023-05-10T15:31:25;16.70;86.50
64062;DHT22;50308;47.438;-1.528;2023-05-10T15:33:56;16.60;86.60
64062;DHT22;50308;47.438;-1.528;2023-05-10T15:36:22;16.60;86.70
64062;DHT22;50308;47.438;-1.528;2023-05-10T15:38:48;16.60;86.60
64062;DHT22;50308;47.438;-1.528;2023-05-10T15:41:14;16.50;86.80
64062;DHT22;50308;47.438;-1.528;2023-05-10T15:43:40;16.50;88.10
64062;DHT22;50308;47.438;-1.528;2023-05-10T15:46:05;16.50;86.60
64062;DHT22;50308;47.438;-1.528;2023-05-10T15:48:31;16.50;86.40
64062;DHT22;50308;47.438;-1.528;2023-05-10T15:50:57;16.40;86.60
64062;DHT22;50308;47.438;-1.528;2023-05-10T15:53:23;16.30;86.30